createdAt,value
2022-09-14T00:01:44.545Z,94907.16
2022-09-14T00:04:17.144Z,94921.03
2022-09-14T00:06:46.174Z,94889.81
2022-09-14T00:09:17.501Z,94911.59
2022-09-14T00:11:46.019Z,94889.16
2022-09-14T00:14:14.720Z,94909.53
2022-09-14T00:16:44.713Z,94906.34
2022-09-14T00:19:19.412Z,94888.97
2022-09-14T00:21:51.124Z,94866.34
2022-09-14T00:24:20.091Z,94897.72
2022-09-14T00:26:48.585Z,94876.56
2022-09-14T00:29:17.637Z,94890.47
2022-09-14T00:31:46.575Z,94899.66
2022-09-14T00:34:18.011Z,94879.00
2022-09-14T00:36:48.369Z,94875.97
2022-09-14T00:39:18.880Z,94874.81
2022-09-14T00:41:49.222Z,94875.16
2022-09-14T00:44:55.123Z,94863.16
2022-09-14T00:47:23.551Z,94869.28
2022-09-14T00:49:53.475Z,94854.06
2022-09-14T00:52:25.973Z,94859.19
2022-09-14T00:54:56.704Z,94855.31
2022-09-14T00:57:26.651Z,94853.72
2022-09-14T00:59:55.922Z,94851.34
2022-09-14T01:02:27.115Z,94854.41
2022-09-14T01:04:57.761Z,94833.66
2022-09-14T01:07:42.935Z,94845.13
2022-09-14T01:10:25.191Z,94846.22
2022-09-14T01:13:07.043Z,94849.72
2022-09-14T01:15:44.405Z,94845.09
2022-09-14T01:18:17.791Z,94852.94
2022-09-14T01:20:53.291Z,94848.66
2022-09-14T01:23:30.195Z,94842.75
2022-09-14T01:26:32.584Z,94838.06
2022-09-14T01:29:04.850Z,94837.13
2022-09-14T01:31:37.798Z,94837.25
2022-09-14T01:34:10.815Z,94823.31
2022-09-14T01:36:44.032Z,94830.34
2022-09-14T01:39:16.354Z,94832.41
2022-09-14T01:41:47.422Z,94826.63
2022-09-14T01:44:21.683Z,94824.38
2022-09-14T01:46:54.975Z,94824.81
2022-09-14T01:49:29.151Z,94824.69
2022-09-14T01:52:02.328Z,94820.41
2022-09-14T01:54:33.635Z,94813.34
2022-09-14T01:57:05.931Z,94811.88
2022-09-14T01:59:40.744Z,94795.94
2022-09-14T02:02:14.227Z,94763.22
2022-09-14T02:04:47.765Z,94802.75
2022-09-14T02:07:17.200Z,94804.59
2022-09-14T02:09:46.617Z,94805.50
2022-09-14T02:12:16.079Z,94802.78
2022-09-14T02:14:47.671Z,94799.97
2022-09-14T02:17:16.895Z,94800.03
2022-09-14T02:19:49.839Z,94780.34
2022-09-14T02:22:18.235Z,94792.94
2022-09-14T02:24:46.984Z,94781.66
2022-09-14T02:27:15.525Z,94793.59
2022-09-14T02:29:45.743Z,94791.00
2022-09-14T02:32:31.755Z,94789.69
2022-09-14T02:35:09.688Z,94790.94
2022-09-14T02:37:46.378Z,94793.00
2022-09-14T02:40:22.721Z,94776.88
2022-09-14T02:43:01.060Z,94786.53
2022-09-14T02:45:40.527Z,94779.59
2022-09-14T02:48:21.210Z,94776.81
2022-09-14T02:50:54.067Z,94790.00
2022-09-14T02:53:32.555Z,94778.47
2022-09-14T02:56:05.810Z,94746.41
2022-09-14T02:58:38.896Z,94771.56
2022-09-14T03:01:11.015Z,94777.00
2022-09-14T03:03:39.733Z,94765.78
2022-09-14T03:06:08.557Z,94767.41
2022-09-14T03:08:37.281Z,94765.13
2022-09-14T03:11:07.140Z,94731.50
2022-09-14T03:13:35.934Z,94753.88
2022-09-14T03:16:09.421Z,94751.97
2022-09-14T03:18:38.770Z,94761.16
2022-09-14T03:21:08.519Z,94753.00
2022-09-14T03:23:38.100Z,94725.25
2022-09-14T03:26:09.781Z,94756.97
2022-09-14T03:28:38.677Z,94764.31
2022-09-14T03:31:10.144Z,94754.91
2022-09-14T03:33:39.465Z,94756.81
2022-09-14T03:36:16.429Z,94753.00
2022-09-14T03:38:46.081Z,94742.28
2022-09-14T03:41:15.477Z,94738.53
2022-09-14T03:43:44.877Z,94689.69
2022-09-14T03:46:16.659Z,94745.94
2022-09-14T03:48:45.510Z,94745.63
2022-09-14T03:51:15.807Z,94744.47
2022-09-14T03:53:45.879Z,94731.41
2022-09-14T03:56:16.889Z,94736.75
2022-09-14T03:58:46.359Z,94732.47
2022-09-14T04:01:18.706Z,94729.75
2022-09-14T04:03:47.821Z,94728.16
2022-09-14T04:06:16.939Z,94717.50
2022-09-14T04:08:46.508Z,94715.00
2022-09-14T04:11:17.279Z,94723.66
2022-09-14T04:13:46.048Z,94712.75
2022-09-14T04:16:16.605Z,94710.25
2022-09-14T04:18:46.007Z,94694.78
2022-09-14T04:21:17.516Z,94713.66
2022-09-14T04:24:10.499Z,94713.66
2022-09-14T04:26:35.800Z,94693.00
2022-09-14T04:29:04.320Z,94710.50
2022-09-14T04:31:35.126Z,94715.94
2022-09-14T04:34:03.443Z,94711.97
2022-09-14T04:36:32.448Z,94719.78
2022-09-14T04:39:02.514Z,94712.03
2022-09-14T04:41:31.895Z,94719.00
2022-09-14T04:44:01.191Z,94718.19
2022-09-14T04:46:31.278Z,94715.94
2022-09-14T04:49:01.094Z,94709.56
2022-09-14T04:51:30.779Z,94710.25
2022-09-14T04:54:00.539Z,94708.66
2022-09-14T04:56:30.401Z,94698.56
2022-09-14T04:59:00.376Z,94705.50
2022-09-14T05:01:30.248Z,94708.22
2022-09-14T05:03:59.076Z,94702.97
2022-09-14T05:06:31.029Z,94709.19
2022-09-14T05:09:00.548Z,94707.50
2022-09-14T05:11:30.419Z,94699.66
2022-09-14T05:14:00.138Z,94704.63
2022-09-14T05:16:30.059Z,94684.63
2022-09-14T05:19:01.895Z,94695.69
2022-09-14T05:21:33.716Z,94678.19
2022-09-14T05:24:04.420Z,94697.81
2022-09-14T05:26:33.823Z,94688.53
2022-09-14T05:29:03.545Z,94689.44
2022-09-14T05:31:33.007Z,94697.94
2022-09-14T05:34:02.052Z,94675.41
2022-09-14T05:36:31.943Z,94692.09
2022-09-14T05:39:01.183Z,94689.88
2022-09-14T05:41:29.555Z,94695.63
2022-09-14T05:43:57.866Z,94692.91
2022-09-14T05:46:26.346Z,94690.31
2022-09-14T05:48:54.827Z,94693.03
2022-09-14T05:51:25.293Z,94690.63
2022-09-14T05:53:56.942Z,94684.75
2022-09-14T05:56:26.906Z,94687.03
2022-09-14T05:58:55.752Z,94678.88
2022-09-14T06:01:26.418Z,94689.75
2022-09-14T06:03:55.733Z,94682.25
2022-09-14T06:06:24.813Z,94682.63
2022-09-14T06:08:56.224Z,94670.34
2022-09-14T06:11:26.684Z,94685.81
2022-09-14T06:13:55.728Z,94684.22
2022-09-14T06:16:25.879Z,94681.94
2022-09-14T06:18:56.202Z,94649.34
2022-09-14T06:21:25.136Z,94650.59
2022-09-14T06:23:55.895Z,94671.56
2022-09-14T06:26:24.261Z,94670.09
2022-09-14T06:28:53.706Z,94668.63
2022-09-14T06:31:22.858Z,94669.41
2022-09-14T06:33:52.304Z,94667.13
2022-09-14T06:36:23.851Z,94666.03
2022-09-14T06:38:52.347Z,94629.91
2022-09-14T06:41:26.677Z,94669.19
2022-09-14T06:43:57.383Z,94668.06
2022-09-14T06:46:27.947Z,94667.41
2022-09-14T06:48:58.503Z,94666.25
2022-09-14T06:51:31.765Z,94671.03
2022-09-14T06:54:01.421Z,94673.75
2022-09-14T06:56:33.696Z,94677.38
2022-09-14T06:59:02.120Z,94673.53
2022-09-14T07:01:30.813Z,94675.56
2022-09-14T07:04:00.466Z,94671.72
2022-09-14T07:06:30.652Z,94680.34
2022-09-14T07:08:59.161Z,94676.50
2022-09-14T07:11:29.658Z,94682.75
2022-09-14T07:14:00.219Z,94682.38
2022-09-14T07:16:29.699Z,94675.38
2022-09-14T07:19:02.078Z,94676.94
2022-09-14T07:21:31.521Z,94680.91
2022-09-14T07:24:00.288Z,94683.63
2022-09-14T07:26:30.737Z,94675.16
2022-09-14T07:29:03.781Z,94679.91
2022-09-14T07:31:34.555Z,94656.44
2022-09-14T07:34:05.680Z,94676.09
2022-09-14T07:36:36.989Z,94674.34
2022-09-14T07:39:06.903Z,94684.03
2022-09-14T07:41:36.552Z,94664.50
2022-09-14T07:44:08.208Z,94677.94
2022-09-14T07:46:39.768Z,94681.09
2022-09-14T07:49:09.490Z,94678.81
2022-09-14T07:51:38.872Z,94677.69
2022-09-14T07:54:08.785Z,94682.03
2022-09-14T07:56:37.194Z,94678.16
2022-09-14T08:01:56.048Z,94670.09
2022-09-14T08:04:24.791Z,94671.69
2022-09-14T08:06:53.174Z,94656.63
2022-09-14T08:09:21.987Z,94646.41
2022-09-14T08:11:50.360Z,94663.06
2022-09-14T08:14:20.832Z,94664.34
2022-09-14T08:16:49.262Z,94670.25
2022-09-14T08:19:20.523Z,94662.50
2022-09-14T08:21:49.087Z,94655.25
2022-09-14T08:24:20.231Z,94657.31
2022-09-14T08:26:49.591Z,94665.25
2022-09-14T08:29:20.543Z,94659.91
2022-09-14T08:31:51.857Z,94657.63
2022-09-14T08:34:21.427Z,94665.81
2022-09-14T08:36:50.238Z,94664.56
2022-09-14T08:39:19.204Z,94655.59
2022-09-14T08:41:55.604Z,94647.78
2022-09-14T08:44:30.968Z,94654.59
2022-09-14T08:47:04.206Z,94652.31
2022-09-14T08:49:42.951Z,94637.81
2022-09-14T08:52:17.159Z,94653.09
2022-09-14T08:54:49.344Z,94651.50
2022-09-14T08:57:21.199Z,94643.44
2022-09-14T08:59:58.069Z,94645.50
2022-09-14T09:02:42.290Z,94641.63
2022-09-14T09:05:26.928Z,94647.53
2022-09-14T09:08:01.066Z,94654.91
2022-09-14T09:10:31.097Z,94649.91
2022-09-14T09:13:01.704Z,94649.56
2022-09-14T09:15:37.475Z,94637.09
2022-09-14T09:18:10.737Z,94635.38
2022-09-14T09:20:46.252Z,94647.97
2022-09-14T09:23:17.130Z,94647.28
2022-09-14T09:26:05.891Z,94648.19
2022-09-14T09:28:35.385Z,94629.25
2022-09-14T09:31:14.017Z,94651.38
2022-09-14T09:33:43.685Z,94615.53
2022-09-14T09:36:16.111Z,94661.59
2022-09-14T09:38:44.535Z,94663.19
2022-09-14T09:41:17.302Z,94663.19
2022-09-14T09:44:00.611Z,94663.50
2022-09-14T09:46:32.807Z,94657.63
2022-09-14T09:49:05.163Z,94656.13
2022-09-14T09:51:35.063Z,94655.00
2022-09-14T09:54:09.926Z,94654.34
2022-09-14T09:56:41.653Z,94645.81
2022-09-14T09:59:27.911Z,94642.28
2022-09-14T10:01:58.673Z,94641.53
2022-09-14T10:04:30.091Z,94652.06
2022-09-14T10:06:59.051Z,94650.94
2022-09-14T10:09:29.421Z,94659.91
2022-09-14T10:12:00.342Z,94660.34
2022-09-14T10:14:32.404Z,94650.69
2022-09-14T10:17:17.510Z,94661.34
2022-09-14T10:19:49.052Z,94661.34
2022-09-14T10:22:27.652Z,94649.75
2022-09-14T10:24:58.938Z,94640.91
2022-09-14T10:27:43.268Z,94654.09
2022-09-14T10:30:16.867Z,94647.94
2022-09-14T10:32:50.229Z,94654.31
2022-09-14T10:35:18.885Z,94653.41
2022-09-14T10:37:59.800Z,94652.44
2022-09-14T10:40:34.452Z,94618.41
2022-09-14T10:43:14.507Z,94649.03
2022-09-14T10:45:48.278Z,94640.06
2022-09-14T10:48:46.375Z,94639.47
2022-09-14T10:51:32.163Z,94622.81
2022-09-14T10:54:12.215Z,94640.47
2022-09-14T10:56:55.757Z,94632.38
2022-09-14T10:59:31.980Z,94628.97
2022-09-14T11:02:31.877Z,94612.09
2022-09-14T11:05:16.350Z,94608.00
2022-09-14T11:07:59.719Z,94604.31
2022-09-14T11:10:35.931Z,94595.44
2022-09-14T11:13:51.075Z,94602.25
2022-09-14T11:16:34.157Z,94600.47
2022-09-14T11:19:11.418Z,94594.41
2022-09-14T11:21:50.130Z,94585.88
2022-09-14T11:24:22.827Z,94597.84
2022-09-14T11:27:04.055Z,94595.94
2022-09-14T11:29:37.318Z,94586.94
2022-09-14T11:32:24.672Z,94595.47
2022-09-14T11:34:58.209Z,94590.72
2022-09-14T11:37:32.057Z,94593.50
2022-09-14T11:40:08.099Z,94592.81
2022-09-14T11:42:44.350Z,94599.88
2022-09-14T11:45:18.746Z,94583.41
2022-09-14T11:47:55.824Z,94590.34
2022-09-14T11:50:28.088Z,94589.13
2022-09-14T11:53:05.111Z,94591.94
2022-09-14T11:55:34.071Z,94582.97
2022-09-14T11:58:06.313Z,94577.94
2022-09-14T12:01:03.608Z,94592.81
2022-09-14T12:03:54.611Z,94588.16
2022-09-14T12:06:45.375Z,94592.75
2022-09-14T12:09:46.381Z,94587.78
2022-09-14T12:12:33.463Z,94592.25
2022-09-14T12:15:03.848Z,94585.47
2022-09-14T12:17:39.835Z,94586.59
2022-09-14T12:20:38.728Z,94587.72
2022-09-14T12:23:16.967Z,94566.59
2022-09-14T12:26:06.368Z,94584.84
2022-09-14T12:31:33.056Z,94572.22
2022-09-14T12:34:16.672Z,94583.06
2022-09-14T12:37:16.413Z,94571.16
2022-09-14T12:40:36.759Z,94579.06
2022-09-14T12:43:48.522Z,94578.31
2022-09-14T12:46:41.096Z,94569.84
2022-09-14T12:49:30.799Z,94576.47
2022-09-14T12:52:05.712Z,94579.28
2022-09-14T12:54:51.303Z,94571.88
2022-09-14T12:57:30.928Z,94577.69
2022-09-14T13:00:07.359Z,94537.63
2022-09-14T13:03:08.119Z,94558.13
2022-09-14T13:05:36.774Z,94556.16
2022-09-14T13:08:11.760Z,94556.16
2022-09-14T13:10:47.087Z,94535.91
2022-09-14T13:13:19.582Z,94539.44
2022-09-14T13:15:53.737Z,94542.25
2022-09-14T13:18:37.633Z,94545.44
2022-09-14T13:21:18.362Z,94550.72
2022-09-14T13:23:47.407Z,94535.59
2022-09-14T13:26:21.224Z,94550.69
2022-09-14T13:28:51.501Z,94555.09
2022-09-14T13:31:24.430Z,94554.31
2022-09-14T13:33:55.844Z,94561.63
2022-09-14T13:36:27.618Z,94552.19
2022-09-14T13:38:58.653Z,94557.06
2022-09-14T13:41:27.187Z,94542.50
2022-09-14T13:43:57.443Z,94527.81
2022-09-14T13:46:28.351Z,94542.00
2022-09-14T13:48:58.737Z,94554.44
2022-09-14T13:51:28.654Z,94552.41
2022-09-14T13:53:58.596Z,94551.88
2022-09-14T13:56:31.346Z,94535.41
2022-09-14T13:59:17.744Z,94538.50
2022-09-14T14:01:55.418Z,94536.81
2022-09-14T14:04:30.189Z,94517.78
2022-09-14T14:07:08.719Z,94527.41
2022-09-14T14:09:44.000Z,94513.13
2022-09-14T14:12:21.779Z,94519.56
2022-09-14T14:14:55.400Z,94517.97
2022-09-14T14:17:32.941Z,94517.22
2022-09-14T14:20:34.126Z,94519.56
2022-09-14T14:23:20.224Z,94519.16
2022-09-14T14:25:52.380Z,94519.16
2022-09-14T14:28:26.703Z,94515.41
2022-09-14T14:30:55.649Z,94514.06
2022-09-14T14:33:24.992Z,94516.38
2022-09-14T14:35:56.638Z,94516.28
2022-09-14T14:38:26.269Z,94474.53
2022-09-14T14:40:58.514Z,94368.81
2022-09-14T14:43:28.521Z,94513.72
2022-09-14T14:45:59.594Z,94487.47
2022-09-14T14:48:28.715Z,94500.34
2022-09-14T14:50:58.541Z,94490.84
2022-09-14T14:53:28.037Z,94495.06
2022-09-14T14:55:56.440Z,94492.31
2022-09-14T14:58:25.575Z,94489.88
2022-09-14T15:00:54.757Z,94455.09
2022-09-14T15:03:23.295Z,94475.44
2022-09-14T15:05:51.781Z,94353.63
2022-09-14T15:08:21.858Z,94467.25
2022-09-14T15:10:50.744Z,94468.13
2022-09-14T15:13:19.136Z,94467.25
2022-09-14T15:15:47.635Z,94457.97
2022-09-14T15:18:16.187Z,94462.50
2022-09-14T15:20:44.517Z,94452.03
2022-09-14T15:23:15.289Z,94411.97
2022-09-14T15:25:45.311Z,94446.16
2022-09-14T15:28:13.944Z,94443.84
2022-09-14T15:30:42.251Z,94446.94
2022-09-14T15:33:10.602Z,94441.81
2022-09-14T15:35:39.619Z,94447.28
2022-09-14T15:38:08.223Z,94445.34
2022-09-14T15:40:36.642Z,94436.81
2022-09-14T15:43:06.732Z,94427.50
2022-09-14T15:45:35.146Z,94423.88
2022-09-14T15:48:04.408Z,94427.06
2022-09-14T15:50:32.802Z,94425.03
2022-09-14T15:53:02.819Z,94418.69
2022-09-14T15:55:31.607Z,94413.94
2022-09-14T15:58:00.124Z,94411.47
2022-09-14T16:00:30.076Z,94406.03
2022-09-14T16:02:58.440Z,94399.34
2022-09-14T16:05:26.956Z,94404.00
2022-09-14T16:07:56.039Z,94408.31
2022-09-14T16:10:25.872Z,94402.31
2022-09-14T16:12:56.336Z,94412.88
2022-09-14T16:15:25.123Z,94407.31
2022-09-14T16:17:56.098Z,94392.19
2022-09-14T16:20:24.929Z,94392.19
2022-09-14T16:22:53.339Z,94404.16
2022-09-14T16:25:21.765Z,94409.88
2022-09-14T16:27:50.224Z,94407.50
2022-09-14T16:30:18.635Z,94412.47
2022-09-14T16:32:47.446Z,94417.13
2022-09-14T16:35:17.347Z,94417.94
2022-09-14T16:37:46.090Z,94411.34
2022-09-14T16:40:14.887Z,94417.69
2022-09-14T16:42:43.612Z,94410.56
2022-09-14T16:45:12.440Z,94410.88
2022-09-14T16:47:41.103Z,94404.22
2022-09-14T16:50:10.461Z,94397.97
2022-09-14T16:52:41.456Z,94394.53
2022-09-14T16:55:10.380Z,94394.09
2022-09-14T16:57:40.959Z,94186.53
2022-09-14T17:00:11.691Z,94389.09
2022-09-14T17:02:40.138Z,94387.41
2022-09-14T17:05:10.298Z,94366.22
2022-09-14T17:07:40.580Z,94375.72
2022-09-14T17:10:09.808Z,94348.13
2022-09-14T17:12:38.342Z,94368.41
2022-09-14T17:15:07.851Z,94369.59
2022-09-14T17:17:36.603Z,94359.00
2022-09-14T17:20:05.451Z,94373.44
2022-09-14T17:22:34.246Z,94369.59
2022-09-14T17:25:05.474Z,94297.97
2022-09-14T17:27:33.896Z,94376.22
2022-09-14T17:30:02.515Z,94369.97
2022-09-14T17:32:30.897Z,94373.06
2022-09-14T17:35:00.119Z,94373.88
2022-09-14T17:37:30.332Z,94366.81
2022-09-14T17:40:00.030Z,94369.91
2022-09-14T17:42:29.983Z,94366.03
2022-09-14T17:44:59.116Z,94375.34
2022-09-14T17:47:28.751Z,94385.78
2022-09-14T17:49:57.248Z,94349.38
2022-09-14T17:52:25.820Z,94384.66
2022-09-14T17:54:54.463Z,94384.66
2022-09-14T17:57:23.100Z,94390.81
2022-09-14T17:59:52.913Z,94394.66
2022-09-14T18:02:21.203Z,94390.38
2022-09-14T18:04:49.642Z,94393.88
2022-09-14T18:07:17.941Z,94380.50
2022-09-14T18:09:46.380Z,94381.28
2022-09-14T18:12:16.176Z,94383.69
2022-09-14T18:14:44.596Z,94384.03
2022-09-14T18:17:14.432Z,94392.19
2022-09-14T18:19:43.726Z,94402.19
2022-09-14T18:22:12.184Z,94412.91
2022-09-14T18:24:40.803Z,94405.25
2022-09-14T18:27:09.605Z,94396.25
2022-09-14T18:29:38.176Z,94425.59
2022-09-14T18:32:06.820Z,94383.81
2022-09-14T18:34:36.632Z,94426.84
2022-09-14T18:37:06.564Z,94407.75
2022-09-14T18:39:36.457Z,94419.88
2022-09-14T18:42:05.140Z,94435.03
2022-09-14T18:44:33.540Z,94438.00
2022-09-14T18:47:02.209Z,94338.75
2022-09-14T18:49:31.246Z,94378.16
2022-09-14T18:52:01.423Z,94431.97
2022-09-14T18:54:30.132Z,94443.88
2022-09-14T18:56:59.551Z,94425.84
2022-09-14T18:59:28.680Z,94408.94
2022-09-14T19:01:57.382Z,94438.31
2022-09-14T19:04:25.894Z,94445.69
2022-09-14T19:06:54.544Z,94449.06
2022-09-14T19:09:24.808Z,94413.56
2022-09-14T19:11:53.333Z,94450.78
2022-09-14T19:14:22.272Z,94452.91
2022-09-14T19:16:52.650Z,94459.78
2022-09-14T19:19:22.907Z,94461.47
2022-09-14T19:21:52.880Z,94460.50
2022-09-14T19:24:22.953Z,94481.13
2022-09-14T19:26:54.967Z,94480.19
2022-09-14T19:29:26.305Z,94482.34
2022-09-14T19:31:56.259Z,94478.25
2022-09-14T19:34:29.378Z,94461.84
2022-09-14T19:36:59.265Z,94464.75
2022-09-14T19:39:29.938Z,94480.84
2022-09-14T19:42:02.296Z,94471.91
2022-09-14T19:44:32.046Z,94465.09
2022-09-14T19:47:01.806Z,94482.38
2022-09-14T19:49:31.633Z,94471.50
2022-09-14T19:52:02.855Z,94444.06
2022-09-14T19:54:32.629Z,94494.75
2022-09-14T19:57:02.767Z,94494.56
2022-09-14T19:59:32.689Z,94430.22
2022-09-14T20:02:02.605Z,94507.28
2022-09-14T20:04:32.693Z,94500.53
2022-09-14T20:07:01.128Z,94502.59
2022-09-14T20:09:30.293Z,94490.13
2022-09-14T20:12:00.100Z,94489.47
2022-09-14T20:14:30.073Z,94502.19
2022-09-14T20:17:00.203Z,94497.91
2022-09-14T20:22:18.614Z,94495.66
2022-09-14T20:24:48.685Z,94498.81
2022-09-14T20:27:19.175Z,94434.59
2022-09-14T20:29:50.425Z,94428.44
2022-09-14T20:32:20.413Z,94502.41
2022-09-14T20:34:50.117Z,94505.78
2022-09-14T20:37:19.908Z,94496.56
2022-09-14T20:39:50.889Z,94508.34
2022-09-14T20:42:20.654Z,94516.03
2022-09-14T20:44:52.422Z,94478.00
2022-09-14T20:47:22.342Z,94515.22
2022-09-14T20:49:51.910Z,94502.28
2022-09-14T20:52:21.714Z,94490.69
2022-09-14T20:54:52.226Z,94509.81
2022-09-14T20:57:20.860Z,94520.81
2022-09-14T20:59:50.789Z,94499.97
2022-09-14T21:02:19.344Z,94520.00
2022-09-14T21:04:47.788Z,94532.47
2022-09-14T21:07:16.116Z,94527.69
2022-09-14T21:09:44.795Z,94500.50
2022-09-14T21:12:15.778Z,94414.28
2022-09-14T21:14:49.364Z,94473.56
2022-09-14T21:17:19.582Z,94539.13
2022-09-14T21:19:47.853Z,94542.00
2022-09-14T21:22:16.280Z,94537.97
2022-09-14T21:24:44.959Z,94536.38
2022-09-14T21:27:13.309Z,94543.41
2022-09-14T21:29:41.656Z,94543.25
2022-09-14T21:32:10.396Z,94521.59
2022-09-14T21:34:40.203Z,94541.34
2022-09-14T21:37:08.883Z,94558.38
2022-09-14T21:39:38.186Z,94549.47
2022-09-14T21:42:06.987Z,94551.69
2022-09-14T21:44:38.215Z,94545.47
2022-09-14T21:47:06.911Z,94547.75
2022-09-14T21:49:35.262Z,94555.06
2022-09-14T21:52:05.421Z,94554.16
2022-09-14T21:54:33.970Z,94550.97
2022-09-14T21:57:02.356Z,94552.22
2022-09-14T21:59:30.984Z,94505.34
2022-09-14T22:01:59.399Z,94564.16
2022-09-14T22:04:28.152Z,94558.06
2022-09-14T22:06:57.330Z,94560.44
2022-09-14T22:09:29.034Z,94540.84
2022-09-14T22:11:58.331Z,94540.84
2022-09-14T22:14:28.861Z,94539.75
2022-09-14T22:16:57.733Z,94472.16
2022-09-14T22:19:28.338Z,94523.91
2022-09-14T22:21:57.061Z,94525.53
2022-09-14T22:24:34.862Z,94507.28
2022-09-14T22:27:06.533Z,94527.28
2022-09-14T22:29:34.960Z,94529.34
2022-09-14T22:32:04.459Z,94524.56
2022-09-14T22:34:33.577Z,94524.97
2022-09-14T22:37:02.010Z,94534.69
2022-09-14T22:39:31.825Z,94538.84
2022-09-14T22:42:00.331Z,94554.00
2022-09-14T22:44:28.788Z,94555.94
2022-09-14T22:46:57.480Z,94555.13
2022-09-14T22:49:25.859Z,94555.94
2022-09-14T22:51:54.237Z,94549.38
2022-09-14T22:54:23.632Z,94556.38
2022-09-14T22:56:53.422Z,94553.56
2022-09-14T22:59:21.848Z,94538.44
2022-09-14T23:01:50.326Z,94533.00
2022-09-14T23:04:18.788Z,94556.88
2022-09-14T23:06:49.090Z,94511.53
2022-09-14T23:09:19.775Z,94557.78
2022-09-14T23:11:48.664Z,94478.44
2022-09-14T23:14:18.896Z,94556.69
2022-09-14T23:16:47.302Z,94549.19
2022-09-14T23:19:17.835Z,94547.59
2022-09-14T23:21:46.736Z,94530.31
2022-09-14T23:24:15.548Z,94536.75
2022-09-14T23:26:44.705Z,94546.69
2022-09-14T23:29:16.476Z,94547.59
2022-09-14T23:31:46.387Z,94531.22
2022-09-14T23:34:14.959Z,94526.75
2022-09-14T23:36:43.388Z,94539.28
2022-09-14T23:39:12.560Z,94537.03
2022-09-14T23:41:40.982Z,94502.31
2022-09-14T23:44:10.908Z,94519.16
2022-09-14T23:46:39.432Z,94532.06
2022-09-14T23:49:09.426Z,94527.13
2022-09-14T23:51:37.912Z,94515.63
2022-09-14T23:54:08.401Z,94505.94
2022-09-14T23:56:38.300Z,94511.66
2022-09-14T23:59:06.704Z,94493.75
